createdAt,value
2023-03-25T00:01:36.393Z,99626.97
2023-03-25T00:04:06.240Z,99628.81
2023-03-25T00:06:34.900Z,99636.34
2023-03-25T00:09:04.996Z,99633.31
2023-03-25T00:11:32.838Z,99636.00
2023-03-25T00:14:00.987Z,99642.03
2023-03-25T00:16:28.928Z,99641.28
2023-03-25T00:18:59.876Z,99649.53
2023-03-25T00:21:29.364Z,99643.22
2023-03-25T00:23:59.613Z,99646.13
2023-03-25T00:26:30.169Z,99645.25
2023-03-25T00:28:58.124Z,99643.00
2023-03-25T00:31:25.868Z,99638.31
2023-03-25T00:33:53.780Z,99630.81
2023-03-25T00:36:21.644Z,99634.56
2023-03-25T00:38:51.321Z,99634.34
2023-03-25T00:41:23.019Z,99648.03
2023-03-25T00:43:52.732Z,99651.63
2023-03-25T00:46:22.843Z,99651.91
2023-03-25T00:48:50.882Z,99650.84
2023-03-25T00:51:21.752Z,99646.94
2023-03-25T00:57:30.019Z,99651.38
2023-03-25T00:59:59.375Z,99637.41
2023-03-25T01:02:28.632Z,99634.31
2023-03-25T01:04:58.080Z,99636.56
2023-03-25T01:07:26.015Z,99634.72
2023-03-25T01:09:53.898Z,99628.44
2023-03-25T01:12:21.640Z,99630.88
2023-03-25T01:14:49.818Z,99627.78
2023-03-25T01:17:19.488Z,99627.34
2023-03-25T01:19:47.205Z,99629.09
2023-03-25T01:22:15.407Z,99626.50
2023-03-25T01:24:43.633Z,99617.03
2023-03-25T01:27:11.840Z,99621.50
2023-03-25T01:29:39.843Z,99627.53
2023-03-25T01:32:08.075Z,99623.31
2023-03-25T01:34:38.798Z,99623.91
2023-03-25T01:37:08.523Z,99621.91
2023-03-25T01:39:37.088Z,99617.34
2023-03-25T01:42:05.808Z,99630.34
2023-03-25T01:45:11.088Z,99625.84
2023-03-25T01:47:39.375Z,99629.44
2023-03-25T01:50:14.751Z,99627.25
2023-03-25T01:52:46.285Z,99622.75
2023-03-25T01:55:14.982Z,99630.97
2023-03-25T01:57:46.313Z,99622.47
2023-03-25T02:00:16.562Z,99605.28
2023-03-25T02:02:46.360Z,99584.53
2023-03-25T02:05:22.620Z,99584.91
2023-03-25T02:07:51.006Z,99582.38
2023-03-25T02:10:20.722Z,99585.22
2023-03-25T02:12:48.632Z,99584.06
2023-03-25T02:15:19.250Z,99575.69
2023-03-25T02:18:02.913Z,99576.47
2023-03-25T02:21:18.102Z,99571.13
2023-03-25T02:24:17.839Z,99579.19
2023-03-25T02:27:15.109Z,99583.53
2023-03-25T02:29:59.023Z,99589.69
2023-03-25T02:32:45.384Z,99602.66
2023-03-25T02:35:29.954Z,99604.91
2023-03-25T02:38:19.035Z,99605.59
2023-03-25T02:40:58.628Z,99603.00
2023-03-25T02:43:33.588Z,99605.72
2023-03-25T02:46:05.700Z,99609.63
2023-03-25T02:48:39.021Z,99615.06
2023-03-25T02:51:11.624Z,99610.56
2023-03-25T02:53:44.042Z,99615.34
2023-03-25T02:56:17.601Z,99606.59
2023-03-25T02:58:47.863Z,99612.63
2023-03-25T03:01:15.875Z,99609.09
2023-03-25T03:03:45.152Z,99616.66
2023-03-25T03:06:18.937Z,99610.41
2023-03-25T03:09:01.124Z,99607.00
2023-03-25T03:11:33.901Z,99610.91
2023-03-25T03:14:16.999Z,99608.84
2023-03-25T03:16:51.755Z,99615.03
2023-03-25T03:19:34.249Z,99604.72
2023-03-25T03:22:14.014Z,99604.44
2023-03-25T03:24:47.330Z,99593.19
2023-03-25T03:27:25.730Z,99610.44
2023-03-25T03:30:00.512Z,99611.59
2023-03-25T03:32:34.818Z,99612.81
2023-03-25T03:35:08.280Z,99613.44
2023-03-25T03:37:40.391Z,99618.94
2023-03-25T03:40:16.380Z,99617.25
2023-03-25T03:42:48.125Z,99610.06
2023-03-25T03:45:20.699Z,99630.47
2023-03-25T03:47:54.072Z,99619.47
2023-03-25T03:50:26.687Z,99625.41
2023-03-25T03:53:03.085Z,99628.75
2023-03-25T03:55:38.375Z,99628.38
2023-03-25T03:58:15.255Z,99622.59
2023-03-25T04:00:50.236Z,99626.59
2023-03-25T04:03:24.380Z,99632.53
2023-03-25T04:05:58.813Z,99630.78
2023-03-25T04:08:32.356Z,99637.91
2023-03-25T04:11:08.016Z,99636.72
2023-03-25T04:13:39.238Z,99643.72
2023-03-25T04:16:08.580Z,99653.13
2023-03-25T04:18:36.910Z,99640.22
2023-03-25T04:21:05.187Z,99650.97
2023-03-25T04:23:34.498Z,99650.72
2023-03-25T04:26:03.896Z,99636.84
2023-03-25T04:28:32.732Z,99639.28
2023-03-25T04:31:05.517Z,99644.75
2023-03-25T04:33:33.295Z,99645.81
2023-03-25T04:36:01.983Z,99654.38
2023-03-25T04:38:30.425Z,99644.56
2023-03-25T04:41:00.358Z,99656.41
2023-03-25T04:43:30.042Z,99665.72
2023-03-25T04:46:00.140Z,99670.38
2023-03-25T04:48:31.648Z,99661.22
2023-03-25T04:51:00.013Z,99670.06
2023-03-25T04:53:28.512Z,99670.38
2023-03-25T04:55:56.591Z,99672.53
2023-03-25T04:58:24.613Z,99680.16
2023-03-25T05:00:54.308Z,99674.94
2023-03-25T05:03:24.259Z,99667.75
2023-03-25T05:05:53.393Z,99678.28
2023-03-25T05:08:22.618Z,99670.88
2023-03-25T05:10:51.206Z,99667.91
2023-03-25T05:13:19.367Z,99672.69
2023-03-25T05:15:48.889Z,99661.88
2023-03-25T05:18:18.823Z,99674.13
2023-03-25T05:20:51.079Z,99671.69
2023-03-25T05:23:19.768Z,99678.63
2023-03-25T05:25:48.757Z,99684.19
2023-03-25T05:28:18.295Z,99682.59
2023-03-25T05:30:48.076Z,99694.56
2023-03-25T05:33:19.086Z,99688.16
2023-03-25T05:35:47.488Z,99696.88
2023-03-25T05:38:18.788Z,99691.28
2023-03-25T05:40:47.699Z,99689.94
2023-03-25T05:43:16.180Z,99701.53
2023-03-25T05:45:45.081Z,99706.47
2023-03-25T05:48:12.972Z,99709.28
2023-03-25T05:50:43.597Z,99703.19
2023-03-25T05:53:13.648Z,99700.06
2023-03-25T05:55:41.563Z,99703.00
2023-03-25T05:58:09.524Z,99697.81
2023-03-25T06:00:37.552Z,99708.31
2023-03-25T06:03:08.642Z,99717.16
2023-03-25T06:05:36.793Z,99715.50
2023-03-25T06:08:06.288Z,99720.53
2023-03-25T06:10:34.459Z,99715.25
2023-03-25T06:13:02.678Z,99715.41
2023-03-25T06:15:33.688Z,99723.47
2023-03-25T06:18:02.599Z,99726.06
2023-03-25T06:20:30.432Z,99732.78
2023-03-25T06:22:59.025Z,99734.22
2023-03-25T06:25:28.432Z,99741.44
2023-03-25T06:27:58.547Z,99746.25
2023-03-25T06:30:28.503Z,99751.94
2023-03-25T06:32:57.834Z,99761.06
2023-03-25T06:35:25.890Z,99754.09
2023-03-25T06:37:53.951Z,99750.88
2023-03-25T06:40:31.164Z,99750.69
2023-03-25T06:43:02.646Z,99744.44
2023-03-25T06:45:53.889Z,99734.06
2023-03-25T06:48:29.083Z,99727.34
2023-03-25T06:50:57.453Z,99724.78
2023-03-25T06:53:26.053Z,99726.78
2023-03-25T06:55:57.864Z,99729.69
2023-03-25T06:58:34.956Z,99728.47
2023-03-25T07:01:07.657Z,99728.16
2023-03-25T07:03:37.541Z,99716.88
2023-03-25T07:06:06.845Z,99712.38
2023-03-25T07:08:36.053Z,99714.81
2023-03-25T07:11:07.306Z,99710.22
2023-03-25T07:13:35.494Z,99702.91
2023-03-25T07:16:04.059Z,99696.91
2023-03-25T07:18:31.996Z,99693.22
2023-03-25T07:21:00.816Z,99693.75
2023-03-25T07:23:28.883Z,99697.19
2023-03-25T07:25:57.353Z,99687.41
2023-03-25T07:28:26.730Z,99688.06
2023-03-25T07:30:54.829Z,99691.56
2023-03-25T07:33:23.139Z,99684.38
2023-03-25T07:35:51.640Z,99685.88
2023-03-25T07:38:19.651Z,99682.78
2023-03-25T07:40:49.849Z,99688.66
2023-03-25T07:43:18.210Z,99672.31
2023-03-25T07:46:07.626Z,99677.50
2023-03-25T07:48:36.795Z,99681.34
2023-03-25T07:51:05.400Z,99680.09
2023-03-25T07:53:33.273Z,99683.22
2023-03-25T07:56:01.150Z,99678.03
2023-03-25T07:58:30.529Z,99679.00
2023-03-25T08:00:58.704Z,99684.13
2023-03-25T08:03:29.237Z,99690.78
2023-03-25T08:05:57.454Z,99690.66
2023-03-25T08:08:25.388Z,99687.09
2023-03-25T08:10:54.068Z,99693.25
2023-03-25T08:13:22.155Z,99692.22
2023-03-25T08:15:50.592Z,99694.59
2023-03-25T08:18:18.628Z,99698.81
2023-03-25T08:20:50.582Z,99687.31
2023-03-25T08:23:20.217Z,99695.38
2023-03-25T08:25:50.407Z,99697.63
2023-03-25T08:28:22.491Z,99689.38
2023-03-25T08:30:54.644Z,99688.31
2023-03-25T08:33:27.287Z,99676.41
2023-03-25T08:35:58.556Z,99690.00
2023-03-25T08:38:34.680Z,99682.88
2023-03-25T08:41:04.243Z,99692.59
2023-03-25T08:43:32.639Z,99678.69
2023-03-25T08:46:00.796Z,99680.03
2023-03-25T08:48:29.040Z,99676.44
2023-03-25T08:50:58.588Z,99682.13
2023-03-25T08:53:26.801Z,99681.09
2023-03-25T08:55:55.096Z,99682.78
2023-03-25T08:58:24.078Z,99680.34
2023-03-25T09:00:54.395Z,99677.13
2023-03-25T09:03:23.055Z,99671.06
2023-03-25T09:05:51.603Z,99670.63
2023-03-25T09:08:21.905Z,99671.38
2023-03-25T09:10:51.643Z,99672.31
2023-03-25T09:13:19.918Z,99661.38
2023-03-25T09:15:47.875Z,99658.53
2023-03-25T09:18:15.836Z,99667.25
2023-03-25T09:20:47.592Z,99684.91
2023-03-25T09:23:15.623Z,99680.69
2023-03-25T09:25:45.018Z,99673.38
2023-03-25T09:28:13.400Z,99669.69
2023-03-25T09:30:41.331Z,99667.75
2023-03-25T09:33:09.894Z,99654.34
2023-03-25T09:35:38.141Z,99672.38
2023-03-25T09:38:06.167Z,99659.72
2023-03-25T09:40:36.035Z,99662.91
2023-03-25T09:43:20.504Z,99682.22
2023-03-25T09:45:50.218Z,99697.50
2023-03-25T09:48:28.426Z,99680.59
2023-03-25T09:50:59.137Z,99699.50
2023-03-25T09:53:32.793Z,99690.38
2023-03-25T09:56:01.526Z,99689.13
2023-03-25T09:58:42.857Z,99676.81
2023-03-25T10:01:28.149Z,99668.91
2023-03-25T10:04:04.094Z,99647.97
2023-03-25T10:06:40.051Z,99641.41
2023-03-25T10:09:24.356Z,99638.81
2023-03-25T10:12:01.285Z,99649.69
2023-03-25T10:14:38.980Z,99641.03
2023-03-25T10:17:18.377Z,99644.50
2023-03-25T10:19:55.709Z,99646.53
2023-03-25T10:22:30.470Z,99648.19
2023-03-25T10:25:02.010Z,99642.47
2023-03-25T10:27:35.712Z,99636.59
2023-03-25T10:30:14.074Z,99639.81
2023-03-25T10:32:47.001Z,99639.91
2023-03-25T10:35:20.283Z,99635.16
2023-03-25T10:37:51.727Z,99632.25
2023-03-25T10:40:25.677Z,99642.47
2023-03-25T10:43:05.080Z,99645.38
2023-03-25T10:45:36.700Z,99669.06
2023-03-25T10:48:12.549Z,99698.94
2023-03-25T10:50:42.760Z,99726.97
2023-03-25T10:53:21.454Z,99736.81
2023-03-25T10:55:53.057Z,99724.97
2023-03-25T10:58:21.600Z,99717.47
2023-03-25T11:00:50.910Z,99724.97
2023-03-25T11:03:23.653Z,99717.69
2023-03-25T11:05:52.995Z,99721.16
2023-03-25T11:08:24.867Z,99712.94
2023-03-25T11:10:57.650Z,99698.63
2023-03-25T11:13:28.050Z,99702.78
2023-03-25T11:16:02.578Z,99693.84
2023-03-25T11:18:36.278Z,99677.00
2023-03-25T11:21:08.986Z,99680.25
2023-03-25T11:23:38.797Z,99673.44
2023-03-25T11:26:09.386Z,99657.41
2023-03-25T11:28:41.442Z,99661.56
2023-03-25T11:31:17.297Z,99660.22
2023-03-25T11:33:46.724Z,99647.25
2023-03-25T11:36:24.018Z,99659.19
2023-03-25T11:38:58.411Z,99653.66
2023-03-25T11:41:31.339Z,99655.72
2023-03-25T11:43:59.814Z,99658.53
2023-03-25T11:46:29.118Z,99658.91
2023-03-25T11:48:57.163Z,99649.00
2023-03-25T11:51:29.269Z,99638.72
2023-03-25T11:54:00.752Z,99651.13
2023-03-25T11:56:35.967Z,99645.69
2023-03-25T11:59:08.525Z,99639.13
2023-03-25T12:01:43.322Z,99638.19
2023-03-25T12:04:18.461Z,99637.81
2023-03-25T12:06:58.928Z,99643.75
2023-03-25T12:09:30.300Z,99612.47
2023-03-25T12:12:17.876Z,99621.44
2023-03-25T12:14:54.390Z,99622.28
2023-03-25T12:17:34.769Z,99619.06
2023-03-25T12:20:16.103Z,99612.25
2023-03-25T12:23:01.270Z,99606.97
2023-03-25T12:25:42.743Z,99593.88
2023-03-25T12:28:33.974Z,99592.59
2023-03-25T12:31:11.326Z,99592.03
2023-03-25T12:33:54.483Z,99589.31
2023-03-25T12:36:35.562Z,99605.25
2023-03-25T12:39:17.262Z,99584.06
2023-03-25T12:41:55.758Z,99576.66
2023-03-25T12:44:47.961Z,99590.50
2023-03-25T12:47:23.000Z,99575.66
2023-03-25T12:50:09.622Z,99607.69
2023-03-25T12:52:44.655Z,99593.69
2023-03-25T12:55:39.768Z,99609.97
2023-03-25T12:58:26.427Z,99599.91
2023-03-25T13:01:02.277Z,99591.81
2023-03-25T13:03:55.488Z,99584.72
2023-03-25T13:06:35.931Z,99583.09
2023-03-25T13:09:11.178Z,99573.22
2023-03-25T13:11:48.025Z,99578.59
2023-03-25T13:14:22.055Z,99550.44
2023-03-25T13:16:56.374Z,99562.00
2023-03-25T13:19:28.747Z,99557.59
2023-03-25T13:22:01.863Z,99561.75
2023-03-25T13:24:39.725Z,99569.28
2023-03-25T13:27:09.221Z,99570.50
2023-03-25T13:29:42.961Z,99571.69
2023-03-25T13:32:19.330Z,99570.22
2023-03-25T13:34:53.528Z,99584.88
2023-03-25T13:37:29.463Z,99591.63
2023-03-25T13:40:14.764Z,99596.63
2023-03-25T13:42:49.747Z,99589.16
2023-03-25T13:45:19.964Z,99578.78
2023-03-25T13:47:55.579Z,99586.63
2023-03-25T13:50:29.164Z,99572.38
2023-03-25T13:53:04.742Z,99572.50
2023-03-25T13:55:37.741Z,99583.16
2023-03-25T13:58:40.847Z,99570.97
2023-03-25T14:01:39.939Z,99574.59
2023-03-25T14:04:38.844Z,99573.41
2023-03-25T14:07:40.232Z,99569.75
2023-03-25T14:10:26.626Z,99577.50
2023-03-25T14:13:02.112Z,99570.47
2023-03-25T14:15:35.088Z,99591.28
2023-03-25T14:18:05.573Z,99571.16
2023-03-25T14:20:37.768Z,99577.50
2023-03-25T14:23:09.888Z,99579.78
2023-03-25T14:25:43.982Z,99576.28
2023-03-25T14:28:18.369Z,99571.31
2023-03-25T14:31:24.509Z,99561.28
2023-03-25T14:34:25.406Z,99564.16
2023-03-25T14:37:18.629Z,99563.31
2023-03-25T14:39:47.220Z,99560.78
2023-03-25T14:42:29.973Z,99557.69
2023-03-25T14:45:32.443Z,99560.69
2023-03-25T14:48:01.586Z,99567.84
2023-03-25T14:50:35.919Z,99563.91
2023-03-25T14:53:07.795Z,99568.69
2023-03-25T14:55:42.587Z,99578.13
2023-03-25T14:58:21.050Z,99561.25
2023-03-25T15:00:55.203Z,99564.94
2023-03-25T15:03:29.159Z,99566.59
2023-03-25T15:06:00.332Z,99572.47
2023-03-25T15:08:36.945Z,99565.28
2023-03-25T15:11:09.839Z,99570.56
2023-03-25T15:13:44.001Z,99578.66
2023-03-25T15:16:20.100Z,99576.25
2023-03-25T15:19:03.605Z,99567.78
2023-03-25T15:22:14.641Z,99566.66
2023-03-25T15:24:48.887Z,99548.16
2023-03-25T15:27:40.705Z,99556.22
2023-03-25T15:30:32.430Z,99552.94
2023-03-25T15:33:17.618Z,99554.38
2023-03-25T15:36:01.417Z,99566.50
2023-03-25T15:38:50.990Z,99557.34
2023-03-25T15:41:54.875Z,99544.72
2023-03-25T15:44:47.778Z,99550.69
2023-03-25T15:47:38.784Z,99537.53
2023-03-25T15:50:25.118Z,99546.72
2023-03-25T15:53:41.762Z,99543.66
2023-03-25T15:56:14.944Z,99546.78
2023-03-25T15:58:52.682Z,99548.16
2023-03-25T16:01:27.826Z,99539.69
2023-03-25T16:04:03.326Z,99531.22
2023-03-25T16:06:36.270Z,99550.63
2023-03-25T16:09:05.289Z,99546.25
2023-03-25T16:11:33.504Z,99545.59
2023-03-25T16:14:08.417Z,99560.69
2023-03-25T16:16:40.093Z,99563.31
2023-03-25T16:19:18.336Z,99559.66
2023-03-25T16:21:50.001Z,99569.81
2023-03-25T16:24:20.968Z,99568.25
2023-03-25T16:26:51.198Z,99573.88
2023-03-25T16:29:21.257Z,99569.19
2023-03-25T16:31:56.551Z,99563.00
2023-03-25T16:34:31.762Z,99566.25
2023-03-25T16:37:01.131Z,99576.50
2023-03-25T16:39:33.349Z,99563.75
2023-03-25T16:42:06.415Z,99569.81
2023-03-25T16:44:35.696Z,99568.66
2023-03-25T16:47:04.814Z,99568.66
2023-03-25T16:49:39.270Z,99564.34
2023-03-25T16:52:14.785Z,99562.06
2023-03-25T16:54:48.834Z,99563.22
2023-03-25T16:57:20.751Z,99562.38
2023-03-25T16:59:52.164Z,99559.75
2023-03-25T17:02:27.067Z,99576.06
2023-03-25T17:05:13.398Z,99583.06
2023-03-25T17:07:42.837Z,99583.41
2023-03-25T17:10:20.646Z,99590.16
2023-03-25T17:12:55.803Z,99601.75
2023-03-25T17:15:25.051Z,99599.38
2023-03-25T17:18:00.188Z,99606.09
2023-03-25T17:20:34.965Z,99618.44
2023-03-25T17:23:08.611Z,99624.03
2023-03-25T17:25:49.337Z,99632.69
2023-03-25T17:28:31.213Z,99665.44
2023-03-25T17:31:00.234Z,99684.50
2023-03-25T17:33:36.047Z,99703.84
2023-03-25T17:36:14.000Z,99708.41
2023-03-25T17:38:46.024Z,99732.25
2023-03-25T17:41:16.456Z,99747.94
2023-03-25T17:43:49.455Z,99803.22
2023-03-25T17:46:21.955Z,99824.00
2023-03-25T17:48:53.234Z,99829.25
2023-03-25T17:51:23.284Z,99830.47
2023-03-25T17:53:51.077Z,99823.81
2023-03-25T17:56:24.301Z,99831.91
2023-03-25T17:58:53.886Z,99800.19
2023-03-25T18:01:22.231Z,99779.72
2023-03-25T18:03:50.091Z,99789.94
2023-03-25T18:06:18.064Z,99791.13
2023-03-25T18:08:47.680Z,99794.72
2023-03-25T18:11:16.523Z,99797.88
2023-03-25T18:13:47.901Z,99799.13
2023-03-25T18:16:16.335Z,99797.88
2023-03-25T18:18:44.417Z,99796.19
2023-03-25T18:21:14.854Z,99800.13
2023-03-25T18:23:44.822Z,99798.97
2023-03-25T18:26:18.022Z,99794.28
2023-03-25T18:28:48.616Z,99799.28
2023-03-25T18:31:18.602Z,99810.50
2023-03-25T18:33:48.651Z,99806.97
2023-03-25T18:36:17.419Z,99811.63
2023-03-25T18:38:46.704Z,99810.19
2023-03-25T18:41:17.316Z,99821.22
2023-03-25T18:43:45.800Z,99810.50
2023-03-25T18:46:15.556Z,99815.38
2023-03-25T18:48:44.231Z,99808.66
2023-03-25T18:51:13.914Z,99812.03
2023-03-25T18:53:42.521Z,99809.34
2023-03-25T18:56:11.204Z,99813.38
2023-03-25T18:58:40.939Z,99806.75
2023-03-25T19:01:10.040Z,99814.75
2023-03-25T19:03:39.749Z,99811.94
2023-03-25T19:06:11.586Z,99814.78
2023-03-25T19:08:39.851Z,99813.75
2023-03-25T19:11:19.817Z,99813.59
2023-03-25T19:13:52.615Z,99812.03
2023-03-25T19:16:21.640Z,99801.88
2023-03-25T19:18:50.495Z,99819.19
2023-03-25T19:21:20.703Z,99817.19
2023-03-25T19:23:52.657Z,99827.25
2023-03-25T19:26:21.001Z,99813.44
2023-03-25T19:28:49.588Z,99809.94
2023-03-25T19:31:19.251Z,99821.06
2023-03-25T19:33:47.952Z,99833.50
2023-03-25T19:36:19.105Z,99830.94
2023-03-25T19:38:47.760Z,99836.38
2023-03-25T19:41:16.746Z,99829.84
2023-03-25T19:43:45.348Z,99843.88
2023-03-25T19:46:13.620Z,99845.63
2023-03-25T19:48:43.453Z,99840.44
2023-03-25T19:51:11.640Z,99840.78
2023-03-25T19:53:40.108Z,99837.03
2023-03-25T19:56:13.866Z,99834.28
2023-03-25T19:58:42.310Z,99836.59
2023-03-25T20:01:10.465Z,99830.84
2023-03-25T20:03:38.871Z,99829.94
2023-03-25T20:06:09.498Z,99824.97
2023-03-25T20:08:37.734Z,99817.81
2023-03-25T20:11:11.500Z,99812.69
2023-03-25T20:13:40.316Z,99818.78
2023-03-25T20:16:09.447Z,99818.78
2023-03-25T20:18:37.835Z,99808.38
2023-03-25T20:21:09.875Z,99800.91
2023-03-25T20:23:38.055Z,99803.66
2023-03-25T20:26:07.183Z,99789.63
2023-03-25T20:28:37.601Z,99794.50
2023-03-25T20:31:19.943Z,99796.25
2023-03-25T20:33:50.022Z,99791.97
2023-03-25T20:36:21.679Z,99793.66
2023-03-25T20:38:57.696Z,99799.28
2023-03-25T20:41:27.574Z,99799.41
2023-03-25T20:43:56.261Z,99799.50
2023-03-25T20:46:28.604Z,99792.53
2023-03-25T20:48:58.000Z,99804.59
2023-03-25T20:51:28.117Z,99821.03
2023-03-25T20:53:58.049Z,99820.31
2023-03-25T20:56:27.632Z,99833.53
2023-03-25T20:58:56.480Z,99840.63
2023-03-25T21:01:25.073Z,99843.56
2023-03-25T21:03:53.532Z,99844.72
2023-03-25T21:06:25.563Z,99850.28
2023-03-25T21:09:01.028Z,99853.22
2023-03-25T21:11:33.561Z,99850.50
2023-03-25T21:14:01.868Z,99854.91
2023-03-25T21:16:31.137Z,99860.53
2023-03-25T21:19:02.392Z,99855.34
2023-03-25T21:21:30.761Z,99855.53
2023-03-25T21:24:00.595Z,99862.06
2023-03-25T21:26:28.970Z,99853.22
2023-03-25T21:28:58.084Z,99854.19
2023-03-25T21:31:27.244Z,99854.13
2023-03-25T21:33:57.296Z,99851.03
2023-03-25T21:36:28.204Z,99852.63
2023-03-25T21:38:58.526Z,99853.16
2023-03-25T21:41:29.896Z,99857.28
2023-03-25T21:43:58.409Z,99856.22
2023-03-25T21:46:28.023Z,99856.47
2023-03-25T21:48:58.473Z,99870.78
2023-03-25T21:51:30.752Z,99869.94
2023-03-25T21:54:00.996Z,99871.19
2023-03-25T21:56:32.461Z,99866.38
2023-03-25T21:59:03.529Z,99876.78
2023-03-25T22:01:32.743Z,99875.94
2023-03-25T22:04:03.712Z,99867.13
2023-03-25T22:06:35.630Z,99874.84
2023-03-25T22:09:06.514Z,99874.34
2023-03-25T22:11:38.180Z,99865.91
2023-03-25T22:14:06.810Z,99866.38
2023-03-25T22:16:35.412Z,99863.88
2023-03-25T22:19:05.013Z,99869.66
2023-03-25T22:21:37.505Z,99867.75
2023-03-25T22:24:07.778Z,99873.44
2023-03-25T22:26:40.084Z,99873.72
2023-03-25T22:29:10.405Z,99879.91
2023-03-25T22:31:42.022Z,99881.91
2023-03-25T22:34:12.601Z,99880.75
2023-03-25T22:36:45.398Z,99883.91
2023-03-25T22:39:13.456Z,99877.06
2023-03-25T22:41:42.673Z,99875.56
2023-03-25T22:44:10.786Z,99871.53
2023-03-25T22:46:39.029Z,99880.88
2023-03-25T22:49:07.612Z,99878.81
2023-03-25T22:51:35.982Z,99873.75
2023-03-25T22:54:05.436Z,99882.84
2023-03-25T22:56:34.569Z,99888.50
2023-03-25T22:59:05.792Z,99884.53
2023-03-25T23:01:35.982Z,99889.72
2023-03-25T23:04:04.411Z,99894.97
2023-03-25T23:06:33.334Z,99893.41
2023-03-25T23:09:01.176Z,99893.00
2023-03-25T23:11:31.484Z,99899.09
2023-03-25T23:14:01.623Z,99895.78
2023-03-25T23:16:34.389Z,99903.56
2023-03-25T23:19:03.394Z,99903.56
2023-03-25T23:21:32.430Z,99906.97
2023-03-25T23:24:02.991Z,99907.28
2023-03-25T23:26:35.762Z,99911.56
2023-03-25T23:29:05.624Z,99913.44
2023-03-25T23:31:36.597Z,99906.66
2023-03-25T23:34:06.548Z,99901.00
2023-03-25T23:36:36.911Z,99904.38
2023-03-25T23:39:06.893Z,99897.69
2023-03-25T23:41:36.072Z,99907.03
2023-03-25T23:44:05.077Z,99898.16
2023-03-25T23:46:33.293Z,99895.09
2023-03-25T23:49:03.220Z,99899.63
2023-03-25T23:51:33.600Z,99893.69
2023-03-25T23:54:02.286Z,99901.47
2023-03-25T23:56:31.262Z,99888.03
2023-03-25T23:59:00.430Z,99894.09
